Time;durP1;ratioP1;P1;durP2;ratioP2;P2;SDS_P1;SDS_P2;PMS_P1;PMS_P2;Temp;Humidity;BMP_temperature;BMP_pressure;BME280_temperature;BME280_humidity;BME280_pressure;Samples;Min_cycle;Max_cycle;Signal;HPM_P1;HPM_P2
2022/06/02 00:01:21;;;;;;;6.95;4.72;;;8.20;99.90;;;;;;5005380;28;20085;-73
2022/06/02 00:04:02;;;;;;;6.90;4.82;;;8.20;99.90;;;;;;5013417;28;20104;-72
2022/06/02 00:06:31;;;;;;;7.28;5.10;;;8.20;99.90;;;;;;5014196;28;20137;-72
2022/06/02 00:09:11;;;;;;;7.30;4.75;;;8.30;99.90;;;;;;5013364;28;20129;-71
2022/06/02 00:11:54;;;;;;;7.03;4.60;;;8.20;99.90;;;;;;5013288;28;20045;-72
2022/06/02 00:14:41;;;;;;;7.45;4.47;;;8.20;99.90;;;;;;5012385;28;20092;-72
2022/06/02 00:17:13;;;;;;;7.22;4.88;;;8.20;99.90;;;;;;5013221;28;20471;-72
2022/06/02 00:19:57;;;;;;;7.47;4.80;;;8.10;99.90;;;;;;5012733;28;20046;-72
2022/06/02 00:22:47;;;;;;;7.05;4.55;;;8.10;99.90;;;;;;5013158;28;20061;-72
2022/06/02 00:25:35;;;;;;;5.90;4.20;;;8.10;99.90;;;;;;5013397;28;20060;-72
2022/06/02 00:28:11;;;;;;;5.95;4.00;;;8.00;99.90;;;;;;5013257;28;20368;-72
2022/06/02 00:31:25;;;;;;;5.68;3.95;;;8.00;99.90;;;;;;5013285;28;20111;-72
2022/06/02 00:34:16;;;;;;;5.18;4.13;;;8.00;99.90;;;;;;5012516;28;20104;-72
2022/06/02 00:36:47;;;;;;;6.70;4.53;;;7.90;99.90;;;;;;5012633;28;20053;-72
2022/06/02 00:39:17;;;;;;;6.90;4.63;;;7.80;99.90;;;;;;5013292;28;20057;-71
2022/06/02 00:42:09;;;;;;;9.25;5.38;;;7.80;99.90;;;;;;5016209;28;20049;-73
2022/06/02 00:44:44;;;;;;;7.20;4.95;;;7.80;99.90;;;;;;5016834;28;20057;-71
2022/06/02 00:47:36;;;;;;;7.35;4.75;;;7.80;99.90;;;;;;5017591;28;20049;-71
2022/06/02 00:50:20;;;;;;;6.10;4.20;;;7.90;99.90;;;;;;5016980;28;20057;-72
2022/06/02 00:53:23;;;;;;;5.45;4.05;;;7.80;99.90;;;;;;5017102;28;20046;-72
2022/06/02 00:59:10;;;;;;;8.48;5.68;;;7.80;99.90;;;;;;5016804;28;20537;-71
2022/06/02 01:01:36;;;;;;;6.78;4.90;;;7.80;99.90;;;;;;5016991;28;20133;-71
2022/06/02 01:04:08;;;;;;;6.78;4.57;;;7.80;99.90;;;;;;5016493;28;20058;-74
2022/06/02 01:06:45;;;;;;;8.35;5.38;;;7.80;99.90;;;;;;5031233;28;20104;-72
2022/06/02 01:09:13;;;;;;;;;;;7.70;99.90;;;;;;5017439;28;20133;-72
2022/06/02 01:11:42;;;;;;;7.75;5.75;;;7.70;99.90;;;;;;5016553;28;20282;-72
2022/06/02 01:14:45;;;;;;;7.07;5.07;;;7.60;99.90;;;;;;5017046;28;20045;-73
2022/06/02 01:17:26;;;;;;;9.10;5.82;;;7.60;99.90;;;;;;5015286;28;20046;-72
2022/06/02 01:19:57;;;;;;;7.38;5.57;;;7.60;99.90;;;;;;5015883;28;20502;-72
2022/06/02 01:22:26;;;;;;;9.15;6.07;;;7.60;99.90;;;;;;5016707;28;20108;-73
2022/06/02 01:25:11;;;;;;;8.55;5.55;;;7.60;99.90;;;;;;5015159;28;20130;-73
2022/06/02 01:27:49;;;;;;;8.95;6.22;;;7.60;99.90;;;;;;5016202;28;20089;-72
2022/06/02 01:30:33;;;;;;;9.27;6.28;;;7.60;99.90;;;;;;5016768;28;20057;-72
2022/06/02 01:33:17;;;;;;;11.00;6.38;;;7.60;99.90;;;;;;5015877;28;20049;-71
2022/06/02 01:35:59;;;;;;;8.45;5.90;;;7.60;99.90;;;;;;5015637;28;20065;-72
2022/06/02 01:38:52;;;;;;;8.40;5.75;;;7.60;99.90;;;;;;5015680;28;20077;-71
2022/06/02 01:41:43;;;;;;;7.78;5.03;;;7.50;99.90;;;;;;5015802;28;20057;-71
2022/06/02 01:44:19;;;;;;;10.25;5.75;;;7.50;99.90;;;;;;5015457;28;20100;-72
2022/06/02 01:46:51;;;;;;;9.10;6.05;;;7.50;99.90;;;;;;5015749;28;20053;-72
2022/06/02 01:49:38;;;;;;;10.00;5.80;;;7.60;99.90;;;;;;5015476;28;20105;-71
2022/06/02 01:52:18;;;;;;;7.80;5.68;;;7.40;99.90;;;;;;5014488;28;20108;-72
2022/06/02 01:55:08;;;;;;;9.57;6.38;;;7.30;99.90;;;;;;5016073;28;20133;-72
2022/06/02 01:57:55;;;;;;;10.13;6.50;;;7.30;99.90;;;;;;5016280;28;20391;-72
2022/06/02 02:00:26;;;;;;;7.82;5.57;;;7.20;99.90;;;;;;5016157;28;20045;-72
2022/06/02 02:03:11;;;;;;;8.98;5.85;;;7.20;99.90;;;;;;5014760;28;20065;-72
2022/06/02 02:05:57;;;;;;;9.82;6.05;;;7.20;99.90;;;;;;5014648;28;20041;-72
2022/06/02 02:08:29;;;;;;;;;;;7.30;99.90;;;;;;5015524;28;20499;-72
2022/06/02 02:11:22;;;;;;;9.32;6.53;;;7.20;99.90;;;;;;5015720;28;20016;-74
2022/06/02 02:14:25;;;;;;;9.20;6.00;;;7.20;99.90;;;;;;5015168;28;20092;-71
2022/06/02 02:17:13;;;;;;;9.55;5.88;;;7.20;99.90;;;;;;5015149;28;20108;-72
2022/06/02 02:19:57;;;;;;;7.43;5.00;;;7.10;99.90;;;;;;5014463;28;20132;-72
2022/06/02 02:22:51;;;;;;;8.82;6.35;;;7.00;99.90;;;;;;5015107;28;20050;-72
2022/06/02 02:25:40;;;;;;;10.77;5.97;;;7.00;99.90;;;;;;5006415;28;20502;-73
2022/06/02 02:28:22;;;;;;;8.85;5.72;;;7.20;99.90;;;;;;5014933;28;20164;-73
2022/06/02 02:31:07;;;;;;;8.20;5.80;;;7.00;99.90;;;;;;5014793;28;20128;-72
2022/06/02 02:33:46;;;;;;;9.63;6.63;;;7.00;99.90;;;;;;5015602;28;20132;-72
2022/06/02 02:36:43;;;;;;;10.80;6.55;;;7.00;99.90;;;;;;5014594;28;20511;-73
2022/06/02 02:39:50;;;;;;;9.10;6.30;;;7.00;99.90;;;;;;5014800;28;20057;-72
2022/06/02 02:42:26;;;;;;;10.13;6.33;;;7.00;99.90;;;;;;5014782;28;20045;-72
2022/06/02 02:45:13;;;;;;;9.90;7.03;;;6.90;99.90;;;;;;5014857;28;20479;-73
2022/06/02 02:47:51;;;;;;;9.77;6.95;;;6.90;99.90;;;;;;5013620;28;20053;-72
2022/06/02 02:50:28;;;;;;;11.35;7.53;;;6.90;99.90;;;;;;5014890;28;20386;-72
2022/06/02 02:53:08;;;;;;;11.75;6.85;;;7.10;99.90;;;;;;5014158;28;20042;-72
2022/06/02 02:55:45;;;;;;;9.68;7.13;;;7.00;99.90;;;;;;5014966;28;20045;-72
2022/06/02 02:58:34;;;;;;;10.25;6.93;;;7.00;99.90;;;;;;5015211;28;20383;-72
2022/06/02 03:01:23;;;;;;;13.25;7.97;;;7.00;99.90;;;;;;5014121;28;20383;-72
2022/06/02 03:04:07;;;;;;;9.60;6.50;;;7.00;99.90;;;;;;5002851;28;20060;-72
2022/06/02 03:06:37;;;;;;;8.65;6.25;;;6.90;99.90;;;;;;5013604;28;20119;-72
2022/06/02 03:09:05;;;;;;;11.15;6.30;;;6.90;99.90;;;;;;5013556;28;20133;-73
2022/06/02 03:11:50;;;;;;;11.45;6.88;;;6.90;99.90;;;;;;5013454;28;20085;-73
2022/06/02 03:14:39;;;;;;;10.23;6.88;;;7.00;99.90;;;;;;5013430;28;20054;-72
2022/06/02 03:17:16;;;;;;;9.18;6.05;;;6.80;99.90;;;;;;5014909;28;20049;-72
2022/06/02 03:20:01;;;;;;;9.40;6.68;;;6.70;99.90;;;;;;5014101;28;20128;-72
2022/06/02 03:22:29;;;;;;;10.32;7.88;;;6.70;99.90;;;;;;5014214;28;20049;-72
2022/06/02 03:25:33;;;;;;;9.57;6.60;;;6.90;99.90;;;;;;5013055;28;20081;-72
2022/06/02 03:28:22;;;;;;;12.63;7.43;;;6.70;99.90;;;;;;5013785;28;20045;-74
2022/06/02 03:30:57;;;;;;;8.18;5.82;;;6.70;99.90;;;;;;5013633;28;20125;-73
2022/06/02 03:33:46;;;;;;;9.05;6.53;;;6.80;99.90;;;;;;5013920;28;20375;-73
2022/06/02 03:36:23;;;;;;;9.43;6.40;;;6.80;99.90;;;;;;5014444;28;20487;-73
2022/06/02 03:39:10;;;;;;;11.00;7.03;;;6.80;99.90;;;;;;5012605;28;20053;-73
2022/06/02 03:41:56;;;;;;;10.45;7.05;;;6.80;99.90;;;;;;5013605;28;20468;-72
2022/06/02 03:44:37;;;;;;;13.32;7.18;;;6.80;99.90;;;;;;5013780;28;20072;-72
2022/06/02 03:47:23;;;;;;;12.18;7.72;;;6.90;99.90;;;;;;5013820;28;20142;-73
2022/06/02 03:49:55;;;;;;;12.80;7.78;;;7.00;99.90;;;;;;5013734;28;20103;-72
2022/06/02 03:52:55;;;;;;;11.13;7.35;;;7.10;99.90;;;;;;5014131;28;20054;-72
2022/06/02 03:55:51;;;;;;;10.85;7.57;;;7.10;99.90;;;;;;5013568;28;20046;-73
2022/06/02 03:58:50;;;;;;;9.75;6.65;;;7.10;99.90;;;;;;5014345;28;20085;-73
2022/06/02 04:01:24;;;;;;;10.63;7.10;;;7.10;99.90;;;;;;5007008;28;20049;-72
2022/06/02 04:04:18;;;;;;;9.77;6.47;;;7.10;99.90;;;;;;5012929;28;20100;-73
2022/06/02 04:07:37;;;;;;;11.52;7.47;;;7.10;99.90;;;;;;5013532;28;20042;-72
2022/06/02 04:10:18;;;;;;;11.02;6.85;;;7.20;99.90;;;;;;4992092;28;20081;-73
2022/06/02 04:15:47;;;;;;;9.68;6.97;;;7.20;99.90;;;;;;5015642;28;20089;-72
2022/06/02 04:18:40;;;;;;;10.60;7.30;;;7.30;99.90;;;;;;5017361;28;20058;-73
2022/06/02 04:21:25;;;;;;;10.55;6.95;;;7.40;99.90;;;;;;5017865;28;20586;-73
2022/06/02 04:24:30;;;;;;;12.60;7.90;;;7.40;99.90;;;;;;5017864;28;20045;-72
2022/06/02 04:27:01;;;;;;;11.18;7.60;;;7.60;99.90;;;;;;5016022;28;20065;-75
2022/06/02 04:29:49;;;;;;;11.05;7.95;;;7.60;99.90;;;;;;5017408;28;20386;-73
2022/06/02 04:32:42;;;;;;;11.57;7.78;;;7.80;99.90;;;;;;5016092;28;20506;-72
2022/06/02 04:35:32;;;;;;;11.35;7.65;;;7.90;99.90;;;;;;5016948;28;20128;-72
2022/06/02 04:38:10;;;;;;;12.57;8.05;;;8.00;99.90;;;;;;5032303;28;20050;-73
2022/06/02 04:40:46;;;;;;;12.18;7.70;;;8.10;99.90;;;;;;5016991;28;20057;-72
2022/06/02 04:43:15;;;;;;;11.43;7.40;;;8.20;99.90;;;;;;5017735;28;20065;-73
2022/06/02 04:46:01;;;;;;;12.18;7.70;;;8.30;99.90;;;;;;5016807;28;20072;-73
2022/06/02 04:48:41;;;;;;;11.70;7.70;;;8.50;99.90;;;;;;5015935;28;20054;-72
2022/06/02 04:51:22;;;;;;;11.27;7.55;;;8.60;99.90;;;;;;5017260;28;20281;-75
2022/06/02 04:54:01;;;;;;;12.38;7.70;;;8.70;99.90;;;;;;5016527;28;20103;-73
2022/06/02 04:56:49;;;;;;;10.98;7.45;;;8.80;99.90;;;;;;5017264;28;20117;-73
2022/06/02 04:59:25;;;;;;;11.32;7.38;;;8.90;99.90;;;;;;5015633;28;20080;-74
2022/06/02 05:02:15;;;;;;;10.60;7.15;;;9.00;99.90;;;;;;5017222;28;20125;-72
2022/06/02 05:05:02;;;;;;;10.27;7.13;;;9.10;99.90;;;;;;5015872;28;20049;-73
2022/06/02 05:07:46;;;;;;;10.27;6.90;;;9.20;99.90;;;;;;5016470;28;20097;-73
2022/06/02 05:10:41;;;;;;;11.68;7.70;;;9.20;99.90;;;;;;5015505;28;20505;-73
2022/06/02 05:13:15;;;;;;;9.57;6.45;;;9.30;99.90;;;;;;5016309;28;20069;-72
2022/06/02 05:16:11;;;;;;;9.18;6.68;;;9.40;99.90;;;;;;5015137;28;20050;-73
2022/06/02 05:19:04;;;;;;;10.65;7.32;;;9.50;99.90;;;;;;5016242;28;20045;-74
2022/06/02 05:22:01;;;;;;;11.25;7.45;;;9.60;99.90;;;;;;5016239;28;20131;-73
2022/06/02 05:24:54;;;;;;;11.80;7.47;;;9.60;99.90;;;;;;5015150;28;20045;-74
2022/06/02 05:27:27;;;;;;;10.05;7.43;;;9.70;99.90;;;;;;5016450;28;20478;-72
2022/06/02 05:30:02;;;;;;;12.55;7.47;;;9.80;99.90;;;;;;5016056;28;20050;-72
2022/06/02 05:32:48;;;;;;;10.70;7.22;;;9.80;99.90;;;;;;5015779;28;20108;-72
2022/06/02 05:35:26;;;;;;;;;;;9.90;99.90;;;;;;5016384;28;20133;-72
2022/06/02 05:38:18;;;;;;;11.00;7.00;;;9.90;99.90;;;;;;5016434;28;20262;-72
2022/06/02 05:41:35;;;;;;;11.77;7.57;;;10.00;99.90;;;;;;5015077;28;20108;-72
2022/06/02 05:44:27;;;;;;;12.95;8.25;;;10.10;99.90;;;;;;5016601;28;20057;-72
2022/06/02 05:47:02;;;;;;;12.23;7.97;;;10.20;99.90;;;;;;5005496;28;20061;-73
2022/06/02 05:50:03;;;;;;;13.18;8.40;;;10.30;99.90;;;;;;5014270;28;20062;-73
2022/06/02 05:53:02;;;;;;;9.95;7.20;;;10.40;99.90;;;;;;5015738;28;20487;-72
2022/06/02 05:55:54;;;;;;;10.07;6.60;;;10.50;99.90;;;;;;5015290;28;20129;-72
2022/06/02 05:58:53;;;;;;;10.50;6.38;;;10.60;99.90;;;;;;5012288;28;20509;-72
2022/06/02 06:01:37;;;;;;;9.93;6.90;;;10.80;99.90;;;;;;5016216;28;20104;-72
2022/06/02 06:04:05;;;;;;;9.30;6.65;;;10.80;99.90;;;;;;5015453;28;20049;-72
2022/06/02 06:06:34;;;;;;;8.15;5.30;;;11.00;99.90;;;;;;5014335;28;20049;-72
2022/06/02 06:09:03;;;;;;;7.93;5.82;;;11.10;99.90;;;;;;5015780;28;20046;-73
2022/06/02 06:11:39;;;;;;;7.95;5.60;;;11.20;99.90;;;;;;5014251;28;20529;-75
2022/06/02 06:14:18;;;;;;;6.82;5.32;;;11.30;99.90;;;;;;5015139;28;20149;-77
2022/06/02 06:16:46;;;;;;;8.13;5.30;;;11.40;99.90;;;;;;5031020;28;20050;-77
2022/06/02 06:19:25;;;;;;;8.40;5.35;;;11.40;99.90;;;;;;5014143;28;20427;-75
2022/06/02 06:22:15;;;;;;;8.40;5.45;;;11.50;99.90;;;;;;5014928;28;20364;-75
2022/06/02 06:25:07;;;;;;;8.52;5.32;;;11.50;99.90;;;;;;5014633;28;20493;-76
2022/06/02 06:27:41;;;;;;;7.18;4.68;;;11.50;99.90;;;;;;5015847;28;20383;-77
2022/06/02 06:30:34;;;;;;;7.40;4.80;;;11.60;99.90;;;;;;5014675;28;20157;-74
2022/06/02 06:33:08;;;;;;;7.07;5.00;;;11.70;99.90;;;;;;5014728;28;20050;-75
2022/06/02 06:35:39;;;;;;;6.97;4.32;;;11.80;99.90;;;;;;5013794;28;20046;-75
2022/06/02 06:38:25;;;;;;;5.60;4.28;;;11.90;99.90;;;;;;5013260;28;20129;-75
2022/06/02 06:41:11;;;;;;;6.70;4.22;;;12.00;99.90;;;;;;5014738;28;20053;-76
2022/06/02 06:43:53;;;;;;;4.90;3.60;;;12.10;99.90;;;;;;5014033;28;20061;-76
2022/06/02 06:46:37;;;;;;;5.40;3.90;;;12.10;99.90;;;;;;5013967;28;20344;-74
2022/06/02 06:49:17;;;;;;;5.55;3.65;;;12.20;99.90;;;;;;5029382;28;20503;-75
2022/06/02 06:51:48;;;;;;;5.55;4.30;;;12.30;99.90;;;;;;5014504;28;20065;-74
2022/06/02 06:54:40;;;;;;;6.90;4.60;;;12.30;99.90;;;;;;5014488;28;20057;-74
2022/06/02 06:57:16;;;;;;;5.47;3.83;;;12.40;99.90;;;;;;5015035;28;20093;-75
2022/06/02 07:00:04;;;;;;;5.95;3.40;;;12.50;99.90;;;;;;5013706;28;20041;-75
2022/06/02 07:03:10;;;;;;;6.47;3.78;;;12.60;99.90;;;;;;5013639;28;20099;-73
2022/06/02 07:05:45;;;;;;;4.35;3.20;;;12.70;99.90;;;;;;5014291;28;20049;-74
2022/06/02 07:08:36;;;;;;;4.38;2.90;;;12.70;99.90;;;;;;5014282;28;20530;-75
2022/06/02 07:14:21;;;;;;;4.13;2.80;;;12.80;99.90;;;;;;5014734;28;20101;-73
2022/06/02 07:16:55;;;;;;;3.95;2.70;;;12.90;99.90;;;;;;5014161;28;20053;-73
2022/06/02 07:19:42;;;;;;;3.35;2.70;;;13.00;99.90;;;;;;5012843;28;20052;-73
2022/06/02 07:22:26;;;;;;;;;;;13.20;99.90;;;;;;5013706;28;20056;-74
2022/06/02 07:25:29;;;;;;;4.32;2.78;;;13.20;99.90;;;;;;5012754;28;20297;-73
2022/06/02 07:28:08;;;;;;;4.97;3.03;;;13.30;99.90;;;;;;5013608;28;20042;-72
2022/06/02 07:31:00;;;;;;;3.95;3.00;;;13.50;99.90;;;;;;5014199;28;20050;-72
2022/06/02 07:33:35;;;;;;;3.88;2.58;;;13.40;99.90;;;;;;5013722;28;20045;-72
2022/06/02 07:36:25;;;;;;;3.63;2.05;;;13.50;99.90;;;;;;5012851;28;20049;-71
2022/06/02 07:39:06;;;;;;;3.55;2.05;;;13.50;99.90;;;;;;5014439;28;20041;-71
2022/06/02 07:41:38;;;;;;;3.10;2.30;;;13.60;99.90;;;;;;5013556;28;20391;-71
2022/06/02 07:44:43;;;;;;;3.55;2.20;;;13.60;99.90;;;;;;5013795;28;20053;-71
2022/06/02 07:47:29;;;;;;;2.38;1.67;;;13.50;99.90;;;;;;5014391;28;20111;-74
2022/06/02 07:50:16;;;;;;;2.83;2.08;;;13.50;99.90;;;;;;5013049;28;20057;-71
2022/06/02 07:52:48;;;;;;;3.88;1.92;;;13.60;99.90;;;;;;5013890;28;20057;-73
2022/06/02 07:55:36;;;;;;;2.97;2.08;;;13.50;99.90;;;;;;5013511;28;20046;-72
2022/06/02 07:58:24;;;;;;;2.95;1.92;;;13.60;99.90;;;;;;5013600;28;20050;-72
2022/06/02 08:01:11;;;;;;;2.60;2.03;;;13.70;99.90;;;;;;5013421;28;20085;-72
2022/06/02 08:04:06;;;;;;;4.28;1.73;;;13.80;99.90;;;;;;5013540;28;20046;-70
2022/06/02 08:07:00;;;;;;;3.75;2.10;;;14.00;99.90;;;;;;5014353;28;20213;-70
2022/06/02 08:10:17;;;;;;;3.15;1.30;;;14.20;99.90;;;;;;5013240;28;20042;-74
2022/06/02 08:13:00;;;;;;;2.70;1.25;;;14.20;99.90;;;;;;4976450;28;20426;-73
2022/06/02 08:16:13;;;;;;;2.97;1.50;;;14.00;99.90;;;;;;4992271;28;20057;-73
2022/06/02 08:19:04;;;;;;;2.20;1.60;;;13.80;99.90;;;;;;4958948;28;20108;-74
2022/06/02 08:21:44;;;;;;;3.42;1.70;;;13.90;99.90;;;;;;5013137;28;20148;-72
2022/06/02 08:24:28;;;;;;;2.70;1.80;;;14.10;99.90;;;;;;5013167;28;20138;-72
2022/06/02 08:27:18;;;;;;;1.92;1.40;;;14.10;99.90;;;;;;5013300;28;20046;-72
2022/06/02 08:30:01;;;;;;;4.88;1.67;;;14.30;99.90;;;;;;5013308;28;20041;-71
2022/06/02 08:32:38;;;;;;;2.47;1.75;;;14.50;99.90;;;;;;5013737;28;20073;-72
2022/06/02 08:35:23;;;;;;;4.13;1.38;;;14.50;99.90;;;;;;5013275;28;20042;-71
2022/06/02 08:38:15;;;;;;;2.30;1.55;;;14.40;99.90;;;;;;5012415;28;20046;-71
2022/06/02 08:41:28;;;;;;;2.83;1.58;;;14.40;99.90;;;;;;5013794;28;20058;-71
2022/06/02 08:44:26;;;;;;;2.28;1.30;;;14.40;99.90;;;;;;5006841;28;20081;-71
2022/06/02 08:47:30;;;;;;;2.70;1.50;;;14.60;99.90;;;;;;5013834;28;20140;-72
2022/06/02 08:50:20;;;;;;;2.20;1.60;;;14.80;99.90;;;;;;5028382;28;20133;-72
2022/06/02 08:53:03;;;;;;;2.40;1.70;;;14.90;99.90;;;;;;5012818;28;20041;-72
2022/06/02 08:55:57;;;;;;;3.55;1.63;;;15.10;99.90;;;;;;5013303;28;20429;-71
2022/06/02 08:58:42;;;;;;;2.78;1.63;;;15.00;99.90;;;;;;5012001;28;20128;-72
2022/06/02 09:01:18;;;;;;;2.25;1.65;;;14.80;99.90;;;;;;5013191;28;20125;-72
2022/06/02 09:03:59;;;;;;;2.33;1.40;;;14.60;99.90;;;;;;5015516;28;20463;-71
2022/06/02 09:06:40;;;;;;;2.85;1.50;;;14.60;99.90;;;;;;5015471;28;20045;-74
2022/06/02 09:09:43;;;;;;;2.85;1.60;;;14.70;99.90;;;;;;5016120;28;20467;-75
2022/06/02 09:12:38;;;;;;;3.33;1.58;;;14.90;99.90;;;;;;5016189;28;20077;-79
2022/06/02 09:15:19;;;;;;;3.15;1.50;;;15.10;99.90;;;;;;5016277;28;20041;-71
2022/06/02 09:17:57;;;;;;;3.15;1.70;;;15.30;99.90;;;;;;5016653;28;20053;-73
2022/06/02 09:20:48;;;;;;;3.20;1.90;;;15.30;99.90;;;;;;5016368;28;20446;-72
2022/06/02 09:23:46;;;;;;;3.92;1.85;;;15.30;99.90;;;;;;5015269;28;20053;-72
2022/06/02 09:27:05;;;;;;;2.40;1.40;;;15.10;99.90;;;;;;5016452;28;20358;-72
2022/06/02 09:29:47;;;;;;;2.30;1.30;;;15.30;99.90;;;;;;4993968;28;20226;-74
2022/06/02 09:32:55;;;;;;;2.05;1.42;;;15.40;99.90;;;;;;4994316;28;20058;-74
2022/06/02 09:35:27;;;;;;;2.97;1.50;;;15.50;99.90;;;;;;5015823;28;20077;-74
2022/06/02 09:38:11;;;;;;;2.20;1.50;;;15.50;99.90;;;;;;5015784;28;20050;-76
2022/06/02 09:40:37;;;;;;;3.13;1.52;;;15.40;99.90;;;;;;5014717;28;20054;-76
2022/06/02 09:43:33;;;;;;;2.85;1.80;;;15.40;99.90;;;;;;5015719;28;20093;-77
2022/06/02 09:46:21;;;;;;;2.90;1.30;;;15.40;99.90;;;;;;5016173;28;20045;-77
2022/06/02 09:48:56;;;;;;;3.13;1.55;;;15.40;99.90;;;;;;5015290;28;20085;-77
2022/06/02 09:51:27;;;;;;;2.28;1.73;;;15.50;99.90;;;;;;5014477;28;20058;-76
2022/06/02 09:54:11;;;;;;;2.20;1.42;;;15.50;99.90;;;;;;5014434;28;20050;-77
2022/06/02 09:56:54;;;;;;;2.97;1.67;;;15.60;99.90;;;;;;5015194;28;20108;-77
2022/06/02 09:59:27;;;;;;;2.67;1.50;;;15.70;99.90;;;;;;5016181;28;20046;-70
2022/06/02 10:02:11;;;;;;;2.20;1.63;;;15.80;99.90;;;;;;5016035;28;20081;-74
2022/06/02 10:05:07;;;;;;;2.83;1.73;;;15.60;99.90;;;;;;5015989;28;20386;-74
2022/06/02 10:07:36;;;;;;;2.23;1.47;;;15.30;99.90;;;;;;5015104;28;20053;-73
2022/06/02 10:10:16;;;;;;;3.13;1.90;;;15.20;99.90;;;;;;5014919;28;20085;-74
2022/06/02 10:13:19;;;;;;;5.43;1.83;;;15.50;99.90;;;;;;5013150;28;20046;-74
2022/06/02 10:16:06;;;;;;;3.10;1.80;;;15.60;99.90;;;;;;5015562;28;20061;-74
2022/06/02 10:18:59;;;;;;;5.57;1.90;;;15.80;99.90;;;;;;5014864;28;20104;-74
2022/06/02 10:21:46;;;;;;;3.47;1.80;;;15.80;99.90;;;;;;5015060;28;20494;-73
2022/06/02 10:24:30;;;;;;;2.22;1.50;;;15.70;99.90;;;;;;5014876;28;20057;-74
2022/06/02 10:27:20;;;;;;;2.00;1.35;;;15.60;99.90;;;;;;5015547;28;20050;-74
2022/06/02 10:30:16;;;;;;;2.28;1.58;;;15.50;99.90;;;;;;5015502;28;20049;-75
2022/06/02 10:33:14;;;;;;;2.95;1.65;;;15.40;99.90;;;;;;5015419;28;20096;-74
2022/06/02 10:36:16;;;;;;;3.97;1.67;;;15.50;99.90;;;;;;5014753;28;20050;-74
2022/06/02 10:38:48;;;;;;;2.75;1.40;;;15.80;99.90;;;;;;5013633;28;20483;-74
2022/06/02 10:41:28;;;;;;;2.22;1.42;;;15.90;99.90;;;;;;5015232;28;20081;-74
2022/06/02 10:43:57;;;;;;;2.75;1.80;;;16.00;99.90;;;;;;5013466;28;20486;-74
2022/06/02 10:46:47;;;;;;;2.92;1.98;;;16.10;99.90;;;;;;5014876;28;20446;-73
2022/06/02 10:49:30;;;;;;;3.63;1.70;;;16.20;99.90;;;;;;5014720;28;20479;-74
2022/06/02 10:52:24;;;;;;;3.38;1.80;;;16.30;99.90;;;;;;5014712;28;20099;-76
2022/06/02 10:55:11;;;;;;;3.13;1.70;;;16.50;99.90;;;;;;5014355;28;20057;-74
2022/06/02 10:58:01;;;;;;;2.60;1.70;;;16.60;99.90;;;;;;5013876;28;20521;-75
2022/06/02 11:00:47;;;;;;;2.22;1.80;;;16.50;99.90;;;;;;5014296;28;20081;-74
2022/06/02 11:03:45;;;;;;;2.97;1.60;;;16.60;99.90;;;;;;5013229;28;20148;-71
2022/06/02 11:06:36;;;;;;;2.58;1.90;;;16.60;99.90;;;;;;5014444;28;20608;-75
2022/06/02 11:09:30;;;;;;;2.20;1.40;;;16.60;99.90;;;;;;5004265;28;20064;-75
2022/06/02 11:12:40;;;;;;;2.28;1.48;;;16.70;99.90;;;;;;5014061;28;20565;-75
2022/06/02 11:15:09;;;;;;;2.30;1.52;;;16.50;99.90;;;;;;4992047;28;20049;-74
2022/06/02 11:18:10;;;;;;;2.90;1.70;;;16.30;99.90;;;;;;4992028;28;20046;-73
2022/06/02 11:21:20;;;;;;;2.75;1.65;;;16.10;99.90;;;;;;5008531;28;20060;-74
2022/06/02 11:23:53;;;;;;;2.53;1.60;;;15.90;99.90;;;;;;5004525;28;20159;-75
2022/06/02 11:26:56;;;;;;;3.58;2.08;;;15.80;99.90;;;;;;5013329;28;20513;-75
2022/06/02 11:29:52;;;;;;;2.33;1.67;;;15.90;99.90;;;;;;5014034;28;20052;-73
2022/06/02 11:32:17;;;;;;;4.13;1.65;;;16.10;99.90;;;;;;5014401;28;20060;-75
2022/06/02 11:35:17;;;;;;;3.80;1.50;;;16.30;99.90;;;;;;5012364;28;20050;-75
2022/06/02 11:38:20;;;;;;;2.17;1.20;;;16.50;99.90;;;;;;5013948;28;20497;-74
2022/06/02 11:41:22;;;;;;;2.40;1.40;;;16.70;99.90;;;;;;5013940;28;20045;-74
2022/06/02 11:44:02;;;;;;;2.40;1.45;;;16.80;99.90;;;;;;5013602;28;20034;-73
2022/06/02 11:47:12;;;;;;;2.00;1.25;;;16.60;99.90;;;;;;5013766;28;20044;-74
2022/06/02 11:49:50;;;;;;;2.30;1.42;;;16.50;99.90;;;;;;5013669;28;20054;-75
2022/06/02 11:52:40;;;;;;;3.13;1.20;;;16.50;99.90;;;;;;5014020;28;20086;-77
2022/06/02 11:55:19;;;;;;;1.90;1.27;;;16.70;99.90;;;;;;5013599;28;20382;-74
2022/06/02 11:58:10;;;;;;;3.55;1.40;;;16.90;99.90;;;;;;5013539;28;20046;-72
2022/06/02 12:01:01;;;;;;;2.00;1.35;;;17.10;99.90;;;;;;5013166;28;20483;-72
2022/06/02 12:03:32;;;;;;;2.25;1.48;;;17.20;99.90;;;;;;5012956;28;20458;-72
2022/06/02 12:06:06;;;;;;;4.80;2.55;;;17.10;99.90;;;;;;5012043;28;20422;-76
2022/06/02 12:08:52;;;;;;;2.03;1.20;;;17.00;99.90;;;;;;5013258;28;20052;-76
2022/06/02 12:11:23;;;;;;;2.75;1.23;;;17.00;99.90;;;;;;5013212;28;20046;-76
2022/06/02 12:14:16;;;;;;;2.35;1.20;;;16.90;99.90;;;;;;5012287;28;20077;-76
2022/06/02 12:16:47;;;;;;;1.75;1.10;;;16.80;99.90;;;;;;5013747;28;20100;-75
2022/06/02 12:19:30;;;;;;;4.00;1.20;;;16.70;99.90;;;;;;5011894;28;20092;-74
2022/06/02 12:22:19;;;;;;;2.10;1.27;;;16.70;99.90;;;;;;5013827;28;20071;-74
2022/06/02 12:24:59;;;;;;;3.97;1.50;;;16.60;99.90;;;;;;5013971;28;20042;-74
2022/06/02 12:27:30;;;;;;;3.42;1.20;;;16.60;99.90;;;;;;5013792;28;20098;-74
2022/06/02 12:30:02;;;;;;;2.10;1.10;;;16.50;99.90;;;;;;5013138;28;20053;-74
2022/06/02 12:32:56;;;;;;;1.90;1.10;;;16.50;99.90;;;;;;5013096;28;20489;-74
2022/06/02 12:35:28;;;;;;;2.30;1.27;;;16.50;99.90;;;;;;5013171;28;20475;-75
2022/06/02 12:38:28;;;;;;;3.15;1.08;;;16.50;99.90;;;;;;5015274;28;20054;-75
2022/06/02 12:41:21;;;;;;;1.77;1.00;;;16.50;99.90;;;;;;5017708;28;20041;-74
2022/06/02 12:44:22;;;;;;;1.75;1.17;;;16.50;99.90;;;;;;5016509;28;20395;-74
2022/06/02 12:47:06;;;;;;;1.58;1.02;;;16.50;99.90;;;;;;4994581;28;20140;-77
2022/06/02 12:49:56;;;;;;;2.70;1.20;;;16.70;99.90;;;;;;5014688;28;20042;-75
2022/06/02 12:53:00;;;;;;;2.63;1.25;;;16.80;99.90;;;;;;5016263;28;20439;-74
2022/06/02 12:56:02;;;;;;;5.30;1.13;;;16.80;99.90;;;;;;5016577;28;20049;-75
2022/06/02 12:58:34;;;;;;;2.17;1.27;;;16.70;99.90;;;;;;5016515;28;20129;-75
2022/06/02 13:01:03;;;;;;;1.65;1.00;;;16.70;99.90;;;;;;5015638;28;20046;-75
2022/06/02 13:04:07;;;;;;;1.88;1.17;;;16.60;99.90;;;;;;5016114;28;20374;-76
2022/06/02 13:06:56;;;;;;;2.85;1.20;;;16.60;99.90;;;;;;5016559;28;20142;-76
2022/06/02 13:09:47;;;;;;;1.50;1.00;;;16.70;99.90;;;;;;5017037;28;20085;-74
2022/06/02 13:12:38;;;;;;;1.85;1.00;;;17.00;99.90;;;;;;5016127;28;20046;-74
2022/06/02 13:15:23;;;;;;;2.88;1.42;;;17.20;99.90;;;;;;5015955;28;20050;-74
2022/06/02 13:18:12;;;;;;;26.52;7.97;;;17.50;99.90;;;;;;5016148;28;20045;-74
2022/06/02 13:21:05;;;;;;;10.88;2.72;;;17.60;99.90;;;;;;5016784;28;20042;-73
2022/06/02 13:23:51;;;;;;;1.70;1.20;;;17.70;99.90;;;;;;5015532;28;20491;-75
2022/06/02 13:26:32;;;;;;;2.33;1.00;;;17.80;99.90;;;;;;5016403;28;20084;-74
2022/06/02 13:29:09;;;;;;;2.10;1.20;;;17.90;99.90;;;;;;5016300;28;20046;-74
2022/06/02 13:31:52;;;;;;;1.80;1.00;;;17.80;99.90;;;;;;5015736;28;20046;-74
2022/06/02 13:34:45;;;;;;;2.65;1.10;;;17.80;99.90;;;;;;5015177;28;20089;-74
2022/06/02 13:37:36;;;;;;;2.13;1.08;;;17.80;99.90;;;;;;5015541;28;20049;-74
2022/06/02 13:40:23;;;;;;;1.83;1.10;;;17.90;99.90;;;;;;5015684;28;20064;-74
2022/06/02 13:43:07;;;;;;;1.75;0.82;;;18.10;99.90;;;;;;5016163;28;20046;-74
2022/06/02 13:45:52;;;;;;;2.08;1.10;;;18.30;99.90;;;;;;5015873;28;20058;-74
2022/06/02 13:48:42;;;;;;;2.03;0.98;;;18.30;99.90;;;;;;5015164;28;20050;-80
2022/06/02 13:51:31;;;;;;;2.40;1.00;;;18.20;99.90;;;;;;5015383;28;20062;-74
2022/06/02 13:57:55;;;;;;;3.92;1.30;;;17.90;99.90;;;;;;5030681;28;20054;-76
2022/06/02 14:01:00;;;;;;;2.15;1.00;;;17.80;99.90;;;;;;5015968;28;20062;-74
2022/06/02 14:03:56;;;;;;;2.00;1.08;;;17.80;99.90;;;;;;5015253;28;20052;-76
2022/06/02 14:06:24;;;;;;;3.05;1.30;;;18.00;99.90;;;;;;5014836;28;20072;-76
2022/06/02 14:09:03;;;;;;;2.03;1.10;;;18.10;99.90;;;;;;5013845;28;20129;-75
2022/06/02 14:11:47;;;;;;;1.75;1.00;;;18.30;99.90;;;;;;5014854;28;20125;-76
2022/06/02 14:14:27;;;;;;;2.20;0.90;;;18.50;99.90;;;;;;5015474;28;20054;-76
2022/06/02 14:16:59;;;;;;;1.50;1.00;;;18.60;99.90;;;;;;5014951;28;20046;-76
2022/06/02 14:19:47;;;;;;;1.52;0.82;;;18.50;99.90;;;;;;5015423;28;20494;-76
2022/06/02 14:22:24;;;;;;;2.40;0.85;;;18.50;99.90;;;;;;5015249;28;20136;-76
2022/06/02 14:25:12;;;;;;;2.08;1.20;;;18.50;99.90;;;;;;5014553;28;20045;-75
2022/06/02 14:27:54;;;;;;;1.83;1.08;;;18.60;99.90;;;;;;5014747;28;20088;-75
2022/06/02 14:30:29;;;;;;;2.40;1.20;;;18.70;99.90;;;;;;5015573;28;20050;-76
2022/06/02 14:33:31;;;;;;;3.33;1.37;;;18.70;99.90;;;;;;5013820;28;20042;-76
2022/06/02 14:36:06;;;;;;;1.77;0.90;;;18.70;99.90;;;;;;5013585;28;20064;-74
2022/06/02 14:38:55;;;;;;;2.40;1.00;;;18.70;99.90;;;;;;5014484;28;20065;-74